Time;durP1;ratioP1;P1;durP2;ratioP2;P2;SDS_P1;SDS_P2;PMS_P1;PMS_P2;Temp;Humidity;BMP_temperature;BMP_pressure;BME280_temperature;BME280_humidity;BME280_pressure;Samples;Min_cycle;Max_cycle;Signal;HPM_P1;HPM_P2
2021/07/04 00:02:23;;;;;;;8.30;5.60;;;18.80;86.20;;;;;;5092408;28;20378;-74
2021/07/04 00:04:49;;;;;;;7.93;5.50;;;18.80;86.40;;;;;;5092374;28;20372;-73
2021/07/04 00:07:14;;;;;;;6.93;5.43;;;18.80;86.30;;;;;;5090866;28;20378;-75
2021/07/04 00:09:40;;;;;;;8.37;5.10;;;18.80;86.40;;;;;;5089426;28;20417;-77
2021/07/04 00:12:07;;;;;;;7.95;6.13;;;18.80;86.40;;;;;;5092146;28;20398;-72
2021/07/04 00:14:32;;;;;;;7.53;5.60;;;18.80;86.60;;;;;;5091236;28;20374;-73
2021/07/04 00:17:28;;;;;;;9.23;6.20;;;18.80;86.50;;;;;;5089959;28;20370;-74
2021/07/04 00:19:55;;;;;;;7.27;5.80;;;18.80;86.50;;;;;;5089986;28;20394;-73
2021/07/04 00:22:20;;;;;;;7.18;5.47;;;18.70;86.40;;;;;;5091155;28;20767;-73
2021/07/04 00:24:47;;;;;;;9.13;5.87;;;18.70;86.50;;;;;;5091639;28;20421;-73
2021/07/04 00:27:13;;;;;;;7.97;5.65;;;18.70;86.40;;;;;;5090890;28;20382;-73
2021/07/04 00:29:39;;;;;;;8.18;6.40;;;18.70;86.70;;;;;;5072352;28;20493;-74
2021/07/04 00:32:05;;;;;;;7.82;5.68;;;18.70;87.30;;;;;;5089948;28;20432;-73
2021/07/04 00:34:30;;;;;;;9.18;6.50;;;18.70;86.90;;;;;;5090245;28;20378;-73
2021/07/04 00:36:56;;;;;;;9.85;6.22;;;18.60;87.20;;;;;;5089447;28;20394;-73
2021/07/04 00:39:22;;;;;;;8.13;6.03;;;18.70;86.50;;;;;;5089705;28;20370;-74
2021/07/04 00:41:47;;;;;;;11.35;6.53;;;18.70;86.80;;;;;;5089683;28;20370;-73
2021/07/04 00:44:13;;;;;;;11.60;6.73;;;18.70;86.70;;;;;;5089684;28;20389;-73
2021/07/04 00:46:39;;;;;;;13.02;7.30;;;18.60;87.10;;;;;;5089341;28;20377;-74
2021/07/04 00:49:04;;;;;;;11.27;7.05;;;18.60;87.20;;;;;;5089573;28;20414;-73
2021/07/04 00:51:30;;;;;;;10.90;6.80;;;18.60;86.90;;;;;;5097962;28;20487;-74
2021/07/04 00:53:57;;;;;;;10.63;7.10;;;18.60;86.90;;;;;;5090025;28;20386;-73
2021/07/04 00:56:22;;;;;;;10.10;7.43;;;18.60;87.10;;;;;;5090562;28;20478;-72
2021/07/04 00:58:49;;;;;;;10.23;7.17;;;18.60;87.00;;;;;;5089822;28;20465;-74
2021/07/04 01:01:15;;;;;;;13.25;8.40;;;18.60;87.10;;;;;;5090353;28;20673;-73
2021/07/04 01:03:40;;;;;;;12.52;7.28;;;18.60;86.80;;;;;;5090124;28;20367;-73
2021/07/04 01:06:06;;;;;;;11.65;8.00;;;18.60;86.80;;;;;;5090727;28;20446;-74
2021/07/04 01:08:32;;;;;;;10.53;7.93;;;18.60;87.20;;;;;;5090449;28;20381;-73
2021/07/04 01:10:58;;;;;;;15.50;8.57;;;18.50;87.50;;;;;;5090315;28;20402;-73
2021/07/04 01:13:23;;;;;;;10.98;8.35;;;18.60;86.80;;;;;;5090801;28;20382;-73
2021/07/04 01:15:49;;;;;;;11.97;8.60;;;18.60;86.80;;;;;;5090249;28;20378;-74
2021/07/04 01:18:15;;;;;;;11.70;8.73;;;18.60;86.50;;;;;;5087435;28;20764;-73
2021/07/04 01:20:41;;;;;;;12.87;9.27;;;18.60;86.70;;;;;;5089578;28;20457;-73
2021/07/04 01:23:11;;;;;;;14.77;10.30;;;18.50;86.90;;;;;;5090523;28;20380;-74
2021/07/04 01:25:49;;;;;;;13.23;8.68;;;18.50;87.00;;;;;;5090260;28;20370;-73
2021/07/04 01:28:19;;;;;;;14.77;8.30;;;18.50;87.10;;;;;;5090242;28;20892;-74
2021/07/04 01:30:48;;;;;;;10.18;8.27;;;18.50;87.30;;;;;;5090153;28;20409;-74
2021/07/04 01:33:13;;;;;;;10.88;7.93;;;18.50;87.10;;;;;;5090214;28;20378;-73
2021/07/04 01:35:39;;;;;;;10.93;7.95;;;18.40;87.50;;;;;;5090459;28;20392;-74
2021/07/04 01:38:05;;;;;;;10.50;7.70;;;18.50;87.50;;;;;;5089806;28;20477;-73
2021/07/04 01:40:31;;;;;;;13.73;8.90;;;18.50;87.10;;;;;;5089945;28;20397;-74
2021/07/04 01:42:57;;;;;;;13.20;8.85;;;18.40;88.00;;;;;;5089899;28;20433;-73
2021/07/04 01:45:23;;;;;;;14.70;10.38;;;18.40;87.70;;;;;;5090172;28;20374;-73
2021/07/04 01:47:50;;;;;;;17.00;8.80;;;18.40;87.20;;;;;;5071749;28;20725;-75
2021/07/04 01:50:27;;;;;;;16.60;10.20;;;18.40;87.30;;;;;;5089781;28;20397;-73
2021/07/04 01:52:53;;;;;;;11.45;8.77;;;18.40;87.30;;;;;;5089821;28;20404;-74
2021/07/04 01:55:20;;;;;;;13.68;8.98;;;18.40;88.10;;;;;;5071631;28;20384;-75
2021/07/04 01:57:47;;;;;;;10.88;8.32;;;18.40;87.50;;;;;;5089917;28;20374;-73
2021/07/04 02:00:22;;;;;;;9.95;7.72;;;18.40;87.80;;;;;;5089583;28;20386;-74
2021/07/04 02:02:52;;;;;;;16.75;8.88;;;18.40;87.80;;;;;;5072094;28;20390;-73
2021/07/04 02:05:18;;;;;;;11.75;8.05;;;18.40;87.70;;;;;;5089944;28;20366;-73
2021/07/04 02:07:44;;;;;;;11.82;7.90;;;18.40;87.50;;;;;;5089942;28;20427;-73
2021/07/04 02:10:15;;;;;;;11.10;8.68;;;18.40;87.50;;;;;;5089453;28;20788;-73
2021/07/04 02:12:41;;;;;;;12.98;9.10;;;18.40;87.50;;;;;;5089951;28;20720;-73
2021/07/04 02:15:12;;;;;;;13.60;8.43;;;18.30;87.60;;;;;;5089852;28;20370;-73
2021/07/04 02:17:37;;;;;;;13.27;8.63;;;18.30;87.70;;;;;;5089606;28;20382;-74
2021/07/04 02:20:16;;;;;;;11.43;8.13;;;18.30;87.70;;;;;;5089168;28;20961;-73
2021/07/04 02:22:42;;;;;;;11.93;8.45;;;18.30;88.00;;;;;;5071296;28;20385;-73
2021/07/04 02:25:08;;;;;;;11.73;8.40;;;18.30;87.90;;;;;;5087063;28;20386;-74
2021/07/04 02:27:33;;;;;;;11.82;7.72;;;18.30;87.60;;;;;;5089108;28;20374;-73
2021/07/04 02:29:59;;;;;;;12.67;8.23;;;18.30;87.80;;;;;;5089269;28;20445;-73
2021/07/04 02:32:24;;;;;;;13.95;9.00;;;18.30;87.60;;;;;;5089084;28;20381;-73
2021/07/04 02:34:50;;;;;;;13.50;8.77;;;18.30;87.70;;;;;;5089619;28;20374;-73
2021/07/04 02:37:15;;;;;;;16.48;8.80;;;18.30;87.70;;;;;;5089056;28;20888;-72
2021/07/04 02:39:41;;;;;;;14.60;9.37;;;18.30;88.00;;;;;;5089559;28;20389;-73
2021/07/04 02:42:06;;;;;;;12.40;8.98;;;18.30;88.00;;;;;;5093253;28;20382;-74
2021/07/04 02:44:32;;;;;;;17.40;9.60;;;18.30;87.60;;;;;;5093095;28;20916;-73
2021/07/04 02:46:57;;;;;;;15.97;9.23;;;18.30;87.80;;;;;;5074374;28;20896;-73
2021/07/04 02:49:23;;;;;;;10.90;8.45;;;18.30;88.10;;;;;;5092969;28;20809;-73
2021/07/04 02:51:48;;;;;;;12.00;8.90;;;18.20;87.80;;;;;;5093419;28;20420;-73
2021/07/04 02:54:14;;;;;;;12.68;8.95;;;18.20;87.80;;;;;;5093067;28;20378;-74
2021/07/04 02:56:39;;;;;;;12.73;9.03;;;18.20;87.70;;;;;;5093317;28;20445;-73
2021/07/04 02:59:05;;;;;;;11.40;8.77;;;18.30;87.80;;;;;;5092615;28;20406;-73
2021/07/04 03:01:30;;;;;;;13.87;8.60;;;18.20;87.80;;;;;;5093121;28;20440;-73
2021/07/04 03:03:56;;;;;;;12.90;9.63;;;18.30;88.00;;;;;;5092959;28;20759;-73
2021/07/04 03:06:21;;;;;;;15.30;9.10;;;18.30;87.90;;;;;;5093206;28;20877;-73
2021/07/04 03:08:47;;;;;;;14.02;9.63;;;18.30;87.70;;;;;;5074230;28;20418;-73
2021/07/04 03:11:13;;;;;;;14.03;9.37;;;18.20;87.50;;;;;;5093012;28;20402;-73
2021/07/04 03:13:38;;;;;;;11.63;8.67;;;18.30;87.70;;;;;;5074447;28;20465;-73
2021/07/04 03:16:04;;;;;;;14.23;9.18;;;18.20;87.80;;;;;;5093012;28;20378;-73
2021/07/04 03:18:30;;;;;;;14.10;9.88;;;18.20;87.90;;;;;;5092373;28;20386;-74
2021/07/04 03:20:55;;;;;;;15.63;9.93;;;18.10;88.10;;;;;;5092446;28;20465;-73
2021/07/04 03:23:21;;;;;;;14.27;9.98;;;18.10;88.00;;;;;;5092873;28;20756;-74
2021/07/04 03:25:46;;;;;;;12.20;9.70;;;18.10;88.50;;;;;;5092560;28;20833;-73
2021/07/04 03:28:12;;;;;;;15.90;10.40;;;18.00;88.50;;;;;;5092575;28;20378;-73
2021/07/04 03:30:37;;;;;;;13.88;9.80;;;18.10;88.70;;;;;;5091601;28;20440;-73
2021/07/04 03:33:03;;;;;;;14.30;10.17;;;18.10;88.30;;;;;;5092577;28;20383;-73
2021/07/04 03:35:28;;;;;;;14.18;9.88;;;18.10;88.10;;;;;;5092301;28;20366;-73
2021/07/04 03:37:54;;;;;;;14.80;10.97;;;18.10;88.20;;;;;;5092265;28;20901;-72
2021/07/04 03:40:20;;;;;;;16.57;10.47;;;18.10;88.70;;;;;;5091958;28;20386;-74
2021/07/04 03:42:47;;;;;;;15.67;11.23;;;18.00;88.70;;;;;;5092403;28;20724;-73
2021/07/04 03:45:13;;;;;;;15.05;10.75;;;18.00;88.50;;;;;;5092102;28;20462;-73
2021/07/04 03:47:40;;;;;;;16.38;11.27;;;18.00;88.60;;;;;;5092296;28;20844;-73
2021/07/04 03:50:06;;;;;;;15.75;11.07;;;18.00;88.80;;;;;;5091908;28;20409;-73
2021/07/04 03:52:31;;;;;;;19.08;12.32;;;17.90;88.90;;;;;;5090537;28;20379;-73
2021/07/04 03:54:57;;;;;;;15.32;10.20;;;17.90;89.60;;;;;;5092202;28;20393;-74
2021/07/04 03:57:23;;;;;;;14.43;10.13;;;18.00;89.10;;;;;;5091878;28;20688;-73
2021/07/04 03:59:53;;;;;;;13.20;10.18;;;17.90;89.20;;;;;;5091944;28;20378;-73
2021/07/04 04:02:19;;;;;;;15.27;10.13;;;17.90;89.20;;;;;;5091866;28;20834;-73
2021/07/04 04:04:45;;;;;;;15.48;10.93;;;18.00;89.00;;;;;;5091979;28;20451;-74
2021/07/04 04:07:10;;;;;;;13.23;10.17;;;18.00;88.80;;;;;;5091414;28;20859;-73
2021/07/04 04:09:36;;;;;;;13.90;10.25;;;18.00;88.90;;;;;;5091825;28;20391;-73
2021/07/04 04:12:02;;;;;;;12.93;9.57;;;18.00;88.80;;;;;;5091616;28;20722;-74
2021/07/04 04:14:27;;;;;;;15.10;9.20;;;18.00;88.80;;;;;;5073903;28;20378;-73
2021/07/04 04:16:52;;;;;;;12.57;9.60;;;18.10;88.60;;;;;;5091360;28;20413;-73
2021/07/04 04:19:18;;;;;;;13.63;9.93;;;18.10;88.50;;;;;;5073052;28;20410;-73
2021/07/04 04:21:44;;;;;;;13.55;9.63;;;18.00;88.40;;;;;;5091755;28;20418;-74
2021/07/04 04:24:09;;;;;;;15.80;10.45;;;18.00;88.90;;;;;;5091459;28;20861;-74
2021/07/04 04:26:36;;;;;;;13.37;9.50;;;18.00;88.70;;;;;;5091572;28;20381;-73
2021/07/04 04:29:01;;;;;;;17.00;9.67;;;18.00;89.20;;;;;;5090954;28;20739;-73
2021/07/04 04:31:27;;;;;;;14.57;10.00;;;17.90;88.90;;;;;;5091548;28;20461;-73
2021/07/04 04:33:53;;;;;;;13.82;9.27;;;18.00;88.20;;;;;;5091335;28;20772;-73
2021/07/04 04:36:18;;;;;;;13.40;10.63;;;18.00;88.20;;;;;;5091537;28;20378;-73
2021/07/04 04:38:44;;;;;;;12.93;9.83;;;18.00;89.20;;;;;;5090847;28;20382;-75
2021/07/04 04:41:09;;;;;;;11.60;8.97;;;18.00;88.90;;;;;;5091899;28;20517;-73
2021/07/04 04:43:35;;;;;;;13.40;9.00;;;18.00;88.50;;;;;;5090986;28;20465;-73
2021/07/04 04:46:01;;;;;;;13.77;9.50;;;18.10;88.70;;;;;;5091441;28;20853;-74
2021/07/04 04:48:28;;;;;;;14.10;9.80;;;18.10;88.60;;;;;;5090793;28;20511;-74
2021/07/04 04:50:53;;;;;;;16.65;9.98;;;18.00;88.90;;;;;;5090290;28;20406;-76
2021/07/04 04:53:19;;;;;;;14.57;10.05;;;18.10;88.90;;;;;;5090507;28;20390;-74
2021/07/04 04:55:45;;;;;;;13.87;9.53;;;18.10;89.10;;;;;;5089658;28;20382;-75
2021/07/04 04:58:12;;;;;;;12.73;9.60;;;18.10;88.80;;;;;;5090928;28;20380;-73
2021/07/04 05:00:38;;;;;;;18.40;11.95;;;18.20;89.00;;;;;;5090416;28;20370;-74
2021/07/04 05:03:06;;;;;;;14.73;10.73;;;18.20;88.60;;;;;;5090072;28;20382;-75
2021/07/04 05:05:32;;;;;;;15.98;10.07;;;18.20;89.30;;;;;;5071823;28;20389;-74
2021/07/04 05:07:57;;;;;;;14.47;10.93;;;18.20;88.90;;;;;;5090610;28;20741;-73
2021/07/04 05:10:23;;;;;;;16.03;10.33;;;18.20;89.00;;;;;;5090144;28;20410;-74
2021/07/04 05:12:48;;;;;;;15.40;11.50;;;18.20;89.00;;;;;;5090509;28;20374;-73
2021/07/04 05:15:14;;;;;;;16.97;11.87;;;18.20;89.10;;;;;;5090584;28;20384;-74
2021/07/04 05:17:40;;;;;;;19.13;12.88;;;18.30;89.10;;;;;;5090553;28;20378;-74
2021/07/04 05:20:07;;;;;;;20.93;12.40;;;18.30;88.90;;;;;;5089969;28;20464;-76
2021/07/04 05:22:34;;;;;;;20.35;14.05;;;18.30;89.20;;;;;;5090274;28;20370;-75
2021/07/04 05:25:00;;;;;;;19.83;12.57;;;18.30;89.00;;;;;;5090554;28;20385;-75
2021/07/04 05:27:26;;;;;;;16.27;11.63;;;18.30;89.40;;;;;;5090086;28;20797;-74
2021/07/04 05:29:51;;;;;;;15.20;9.75;;;18.40;89.30;;;;;;5089855;28;20404;-75
2021/07/04 05:32:17;;;;;;;17.17;11.30;;;18.30;89.30;;;;;;5090000;28;20469;-75
2021/07/04 05:34:43;;;;;;;16.67;11.10;;;18.30;89.10;;;;;;5072055;28;20382;-74
2021/07/04 05:37:08;;;;;;;17.93;12.13;;;18.40;88.90;;;;;;5089546;28;20390;-74
2021/07/04 05:39:34;;;;;;;23.95;13.70;;;18.40;89.20;;;;;;5072042;28;20495;-74
2021/07/04 05:42:01;;;;;;;21.35;12.70;;;18.40;89.70;;;;;;5089227;28;21330;-75
2021/07/04 05:44:27;;;;;;;18.92;11.80;;;18.40;89.10;;;;;;5090183;28;20370;-74
2021/07/04 05:46:53;;;;;;;16.50;11.27;;;18.40;89.70;;;;;;5089600;28;20379;-74
2021/07/04 05:49:18;;;;;;;17.93;12.13;;;18.40;89.60;;;;;;5089591;28;20374;-75
2021/07/04 05:51:45;;;;;;;19.67;12.30;;;18.40;89.70;;;;;;5090079;28;20611;-73
2021/07/04 05:54:10;;;;;;;14.93;10.77;;;18.40;89.90;;;;;;5089550;28;20526;-74
2021/07/04 05:56:37;;;;;;;23.87;16.33;;;18.50;89.40;;;;;;5090021;28;20549;-74
2021/07/04 05:59:02;;;;;;;22.80;15.70;;;18.60;90.90;;;;;;5071150;28;20389;-73
2021/07/04 06:01:28;;;;;;;22.87;14.37;;;18.50;90.80;;;;;;5089842;28;20381;-73
2021/07/04 06:03:54;;;;;;;22.40;14.70;;;18.50;90.80;;;;;;5089543;28;20377;-74
2021/07/04 06:06:20;;;;;;;18.65;11.95;;;18.40;90.40;;;;;;5089925;28;20428;-75
2021/07/04 06:08:46;;;;;;;16.73;12.18;;;18.50;89.90;;;;;;5089072;28;20795;-74
2021/07/04 06:11:11;;;;;;;16.23;11.47;;;18.50;89.80;;;;;;5089667;28;20759;-75
2021/07/04 06:13:37;;;;;;;15.20;11.13;;;18.50;89.70;;;;;;5089475;28;20825;-74
2021/07/04 06:16:03;;;;;;;16.70;11.60;;;18.60;89.60;;;;;;5089213;28;20378;-73
2021/07/04 06:18:29;;;;;;;17.50;11.95;;;18.60;89.10;;;;;;5089229;28;20668;-73
2021/07/04 06:20:54;;;;;;;14.25;10.40;;;18.60;89.20;;;;;;5089070;28;20382;-74
2021/07/04 06:23:20;;;;;;;17.30;12.37;;;18.70;89.40;;;;;;5089615;28;20405;-74
2021/07/04 06:25:46;;;;;;;20.07;12.77;;;18.70;89.40;;;;;;5089649;28;20370;-75
2021/07/04 06:28:12;;;;;;;19.02;13.10;;;18.80;89.50;;;;;;5089616;28;20377;-74
2021/07/04 06:30:38;;;;;;;19.80;13.60;;;18.80;88.90;;;;;;5089086;28;20398;-74
2021/07/04 06:33:03;;;;;;;18.08;12.10;;;18.90;89.10;;;;;;5067986;28;20386;-76
2021/07/04 06:35:30;;;;;;;20.27;12.50;;;18.90;89.20;;;;;;5083105;28;20457;-75
2021/07/04 06:37:55;;;;;;;20.05;12.88;;;18.80;88.90;;;;;;5089371;28;20385;-74
2021/07/04 06:40:21;;;;;;;19.13;12.90;;;18.90;89.40;;;;;;5089041;28;20378;-74
2021/07/04 06:42:47;;;;;;;17.77;11.90;;;18.90;89.60;;;;;;5071215;28;20898;-74
2021/07/04 06:45:13;;;;;;;16.53;11.70;;;18.90;89.40;;;;;;5088945;28;20370;-74
2021/07/04 06:47:45;;;;;;;19.30;12.18;;;19.00;89.50;;;;;;5089080;28;20899;-76
2021/07/04 06:50:11;;;;;;;15.93;11.10;;;19.00;89.40;;;;;;5088753;28;20459;-74
2021/07/04 06:52:37;;;;;;;15.38;10.40;;;19.00;89.70;;;;;;5088764;28;20858;-75
2021/07/04 06:55:05;;;;;;;17.03;11.13;;;18.90;89.50;;;;;;5071117;28;20432;-75
2021/07/04 06:57:31;;;;;;;15.07;10.07;;;18.90;89.80;;;;;;5088690;28;20362;-75
2021/07/04 07:00:08;;;;;;;16.63;10.10;;;18.80;88.80;;;;;;5070612;28;20480;-76
2021/07/04 07:02:34;;;;;;;15.68;10.95;;;18.80;89.40;;;;;;5089054;28;20385;-74
2021/07/04 07:05:00;;;;;;;17.95;10.65;;;18.80;89.90;;;;;;5089114;28;20383;-75
2021/07/04 07:07:25;;;;;;;13.55;9.30;;;18.70;90.20;;;;;;5088766;28;20373;-75
2021/07/04 07:09:52;;;;;;;15.83;10.07;;;18.80;89.60;;;;;;5089103;28;20859;-76
2021/07/04 07:12:17;;;;;;;13.07;9.68;;;18.80;89.80;;;;;;5088961;28;20512;-76
2021/07/04 07:14:43;;;;;;;13.77;10.40;;;18.80;88.80;;;;;;5089123;28;20477;-83
2021/07/04 07:17:09;;;;;;;18.15;9.82;;;18.80;89.10;;;;;;5088676;28;20497;-77
2021/07/04 07:19:35;;;;;;;13.80;10.40;;;18.80;89.70;;;;;;5088656;28;20473;-76
2021/07/04 07:22:01;;;;;;;15.25;10.55;;;18.90;89.50;;;;;;5089262;28;20374;-78
2021/07/04 07:24:28;;;;;;;17.92;10.80;;;18.90;89.90;;;;;;5070740;28;20485;-75
2021/07/04 07:26:53;;;;;;;26.58;11.20;;;18.90;89.40;;;;;;5090827;28;20370;-75
2021/07/04 07:29:19;;;;;;;15.40;10.93;;;18.90;88.70;;;;;;5073904;28;20764;-73
2021/07/04 07:31:45;;;;;;;17.57;10.87;;;18.90;89.00;;;;;;5092519;28;20741;-74
2021/07/04 07:34:11;;;;;;;15.77;10.73;;;18.90;88.60;;;;;;5073868;28;20769;-76
2021/07/04 07:36:36;;;;;;;16.27;10.87;;;19.10;88.30;;;;;;5092411;28;20408;-76
2021/07/04 07:39:03;;;;;;;17.98;10.52;;;19.10;89.70;;;;;;5090765;28;20402;-83
2021/07/04 07:41:29;;;;;;;19.05;10.73;;;19.20;88.30;;;;;;5093212;28;20378;-78
2021/07/04 07:43:55;;;;;;;16.43;10.37;;;19.20;88.20;;;;;;5092929;28;20401;-78
2021/07/04 07:46:20;;;;;;;15.75;10.25;;;19.30;87.90;;;;;;5092796;28;20864;-78
2021/07/04 07:48:46;;;;;;;16.40;10.23;;;19.30;87.50;;;;;;5092169;28;20869;-79
2021/07/04 07:51:13;;;;;;;14.48;9.52;;;19.40;87.90;;;;;;5074421;28;20949;-77
2021/07/04 07:53:39;;;;;;;14.35;9.32;;;19.60;87.30;;;;;;5092241;28;20382;-81
2021/07/04 07:56:05;;;;;;;18.67;9.45;;;19.80;85.80;;;;;;5074800;28;20833;-81
2021/07/04 07:58:31;;;;;;;18.63;9.60;;;19.80;87.70;;;;;;5074489;28;20461;-83
2021/07/04 08:00:56;;;;;;;12.63;9.00;;;19.90;86.30;;;;;;5092187;28;20450;-80
2021/07/04 08:03:22;;;;;;;12.37;8.33;;;20.00;86.70;;;;;;5092640;28;20373;-83
2021/07/04 08:05:47;;;;;;;14.50;8.50;;;20.10;85.70;;;;;;5075156;28;20895;-79
2021/07/04 08:08:13;;;;;;;14.60;9.20;;;20.20;86.80;;;;;;5092821;28;20386;-82
2021/07/04 08:10:38;;;;;;;14.37;8.97;;;20.10;85.60;;;;;;5092802;28;20428;-83
2021/07/04 08:13:05;;;;;;;14.50;8.45;;;20.30;87.40;;;;;;5092909;28;20467;-80
2021/07/04 08:15:32;;;;;;;14.20;7.95;;;20.40;84.40;;;;;;5092561;28;20386;-82
2021/07/04 08:17:57;;;;;;;11.10;8.35;;;20.20;85.20;;;;;;5092295;28;20370;-78
2021/07/04 08:20:23;;;;;;;13.70;7.43;;;20.20;86.30;;;;;;5073920;28;20469;-77
2021/07/04 08:22:49;;;;;;;10.53;7.63;;;20.10;84.80;;;;;;5091928;28;20381;-80
2021/07/04 08:25:16;;;;;;;14.18;8.40;;;20.10;85.20;;;;;;5070208;28;20382;-78
2021/07/04 08:27:42;;;;;;;12.60;8.65;;;20.10;85.00;;;;;;5073813;28;20382;-75
2021/07/04 08:30:10;;;;;;;11.13;8.00;;;20.30;85.50;;;;;;5092304;28;20410;-76
2021/07/04 08:32:36;;;;;;;13.05;8.35;;;20.30;84.80;;;;;;5073768;28;20451;-77
2021/07/04 08:35:02;;;;;;;12.20;8.10;;;20.30;84.30;;;;;;5091755;28;20381;-74
2021/07/04 08:37:28;;;;;;;12.80;8.13;;;20.50;84.90;;;;;;5106699;28;20394;-75
2021/07/04 08:39:53;;;;;;;11.23;7.90;;;20.50;84.80;;;;;;5091787;28;20374;-75
2021/07/04 08:42:19;;;;;;;9.52;6.88;;;20.60;84.30;;;;;;5091919;28;20362;-76
2021/07/04 08:44:53;;;;;;;11.07;6.70;;;20.70;83.30;;;;;;5107719;28;20375;-76
2021/07/04 08:47:20;;;;;;;11.73;7.15;;;20.80;83.40;;;;;;5073395;28;20742;-76
2021/07/04 08:49:48;;;;;;;12.50;6.78;;;20.70;83.00;;;;;;5091382;28;20892;-75
2021/07/04 08:52:14;;;;;;;10.25;6.50;;;20.90;84.50;;;;;;5091790;28;20435;-71
2021/07/04 08:54:41;;;;;;;10.23;6.28;;;21.00;82.30;;;;;;5091913;28;20394;-75
2021/07/04 08:57:10;;;;;;;8.45;6.43;;;21.20;81.80;;;;;;5091671;28;20370;-74
2021/07/04 08:59:40;;;;;;;8.85;6.20;;;21.30;80.00;;;;;;5091259;28;20949;-73
2021/07/04 09:02:10;;;;;;;9.20;6.03;;;21.30;83.50;;;;;;5091783;28;20362;-74
2021/07/04 09:04:56;;;;;;;12.57;6.85;;;21.50;79.40;;;;;;5091808;28;20407;-74
2021/07/04 09:07:25;;;;;;;9.73;6.18;;;21.60;82.10;;;;;;5091657;28;20461;-75
2021/07/04 09:09:58;;;;;;;9.38;6.30;;;21.60;79.70;;;;;;5091405;28;20370;-76
2021/07/04 09:12:48;;;;;;;10.82;7.10;;;21.30;80.60;;;;;;5091389;28;20397;-74
2021/07/04 09:15:15;;;;;;;10.38;6.80;;;21.30;82.20;;;;;;5107334;28;20382;-74
2021/07/04 09:17:45;;;;;;;7.65;6.03;;;21.60;80.00;;;;;;5090781;28;20378;-74
2021/07/04 09:20:14;;;;;;;9.30;5.80;;;21.50;79.60;;;;;;5091018;28;20386;-77
2021/07/04 09:22:42;;;;;;;10.03;6.23;;;21.80;77.10;;;;;;5091201;28;20369;-86
2021/07/04 09:25:25;;;;;;;8.65;5.88;;;21.90;79.50;;;;;;5091302;28;20892;-78
2021/07/04 09:28:11;;;;;;;7.93;5.80;;;22.20;78.90;;;;;;5091149;28;20461;-77
2021/07/04 09:30:44;;;;;;;8.23;6.05;;;22.30;77.90;;;;;;5089214;28;20398;-80
2021/07/04 09:33:20;;;;;;;10.40;6.20;;;22.40;79.10;;;;;;5089943;28;20386;-80
2021/07/04 09:36:00;;;;;;;11.50;6.43;;;22.00;79.10;;;;;;5089354;28;20793;-79
2021/07/04 09:38:31;;;;;;;9.65;6.28;;;21.70;78.30;;;;;;5090510;28;20470;-79
2021/07/04 09:40:56;;;;;;;9.38;7.03;;;21.50;78.00;;;;;;5090487;28;20392;-77
2021/07/04 09:43:22;;;;;;;9.00;6.60;;;21.40;79.50;;;;;;5072565;28;20385;-78
2021/07/04 09:45:53;;;;;;;11.93;6.43;;;21.30;79.70;;;;;;5072561;28;20370;-78
2021/07/04 09:48:42;;;;;;;10.77;6.17;;;21.30;80.70;;;;;;5090637;28;20405;-80
2021/07/04 09:51:20;;;;;;;10.65;6.65;;;21.40;81.00;;;;;;5077137;28;20493;-76
2021/07/04 09:53:57;;;;;;;9.55;6.25;;;21.40;82.80;;;;;;5071856;28;20401;-76
2021/07/04 09:56:29;;;;;;;10.98;6.70;;;21.20;82.90;;;;;;5090628;28;20378;-76
2021/07/04 09:58:59;;;;;;;9.88;6.70;;;21.20;84.50;;;;;;5089632;28;20374;-76
2021/07/04 10:01:39;;;;;;;10.82;6.03;;;21.30;84.90;;;;;;5072227;28;20425;-75
2021/07/04 10:04:08;;;;;;;7.95;5.68;;;21.20;83.70;;;;;;5071457;28;20390;-75
2021/07/04 10:06:47;;;;;;;9.63;6.65;;;21.20;84.40;;;;;;5090370;28;20386;-75
2021/07/04 10:09:14;;;;;;;7.25;5.47;;;21.40;86.00;;;;;;5090069;28;20477;-75
2021/07/04 10:11:39;;;;;;;7.87;5.83;;;21.80;82.70;;;;;;5090366;28;20406;-76
2021/07/04 10:14:05;;;;;;;8.70;5.10;;;22.20;83.90;;;;;;5090936;28;20838;-76
2021/07/04 10:16:31;;;;;;;10.00;5.50;;;22.20;75.90;;;;;;5090391;28;20777;-76
2021/07/04 10:19:00;;;;;;;8.50;5.45;;;22.00;76.70;;;;;;5090189;28;20922;-76
2021/07/04 10:21:27;;;;;;;7.50;5.38;;;21.80;80.30;;;;;;5090542;28;20385;-75
2021/07/04 10:23:56;;;;;;;8.80;5.57;;;21.60;78.50;;;;;;5090498;28;20458;-76
2021/07/04 10:26:24;;;;;;;7.38;5.60;;;21.50;80.40;;;;;;5090959;28;20374;-76
2021/07/04 10:28:50;;;;;;;8.27;5.40;;;21.50;80.20;;;;;;5090028;28;20707;-75
2021/07/04 10:31:18;;;;;;;10.52;5.35;;;21.50;80.80;;;;;;5072710;28;20485;-76
2021/07/04 10:33:44;;;;;;;7.77;5.80;;;21.50;79.00;;;;;;5090379;28;20386;-76
2021/07/04 10:36:20;;;;;;;8.98;5.72;;;21.50;80.80;;;;;;5090512;28;20744;-76
2021/07/04 10:38:56;;;;;;;7.80;5.57;;;21.30;80.40;;;;;;5089769;28;20389;-76
2021/07/04 10:41:26;;;;;;;7.72;5.13;;;21.40;81.40;;;;;;5090426;28;20838;-76
2021/07/04 10:43:59;;;;;;;5.93;4.50;;;21.30;80.30;;;;;;5089913;28;20385;-76
2021/07/04 10:46:49;;;;;;;6.65;4.25;;;21.00;80.40;;;;;;5090095;28;20381;-76
2021/07/04 10:49:18;;;;;;;5.97;4.20;;;20.80;80.70;;;;;;5089903;28;20464;-76
2021/07/04 10:52:14;;;;;;;9.32;4.50;;;20.80;80.70;;;;;;5089259;28;20408;-76
2021/07/04 10:54:43;;;;;;;6.78;4.72;;;20.90;82.50;;;;;;5051976;28;20395;-76
2021/07/04 10:57:10;;;;;;;5.95;4.05;;;20.90;82.20;;;;;;5069588;28;20384;-76
2021/07/04 11:02:47;;;;;;;9.73;5.07;;;20.80;84.30;;;;;;5072729;28;20908;-75
2021/07/04 11:05:30;;;;;;;9.43;6.10;;;20.80;84.70;;;;;;5089069;28;20399;-78
2021/07/04 11:07:56;;;;;;;8.77;5.80;;;20.60;84.10;;;;;;5073384;28;20379;-76
2021/07/04 11:10:26;;;;;;;7.60;5.03;;;20.80;84.90;;;;;;5072781;28;21167;-77
2021/07/04 11:12:54;;;;;;;8.75;5.47;;;20.90;85.20;;;;;;5073544;28;20406;-75
2021/07/04 11:15:20;;;;;;;8.85;5.30;;;20.90;83.40;;;;;;5055185;28;20775;-75
2021/07/04 11:17:58;;;;;;;7.60;5.87;;;21.00;84.00;;;;;;5073355;28;20375;-75
2021/07/04 11:20:30;;;;;;;8.43;5.70;;;21.10;84.10;;;;;;5079912;28;20412;-75
2021/07/04 11:23:04;;;;;;;7.13;5.07;;;21.20;84.40;;;;;;5075043;28;20481;-74
2021/07/04 11:25:57;;;;;;;8.73;6.13;;;21.20;84.70;;;;;;5092775;28;20424;-77
2021/07/04 11:28:31;;;;;;;8.07;5.80;;;21.30;85.30;;;;;;5081820;28;21015;-77
2021/07/04 11:31:01;;;;;;;8.27;5.47;;;21.30;86.60;;;;;;5091383;28;20474;-75
2021/07/04 11:33:40;;;;;;;28.15;7.25;;;21.10;87.20;;;;;;5091828;28;20390;-82
2021/07/04 11:36:10;;;;;;;17.98;6.88;;;21.10;87.20;;;;;;5091476;28;20450;-81
2021/07/04 11:38:40;;;;;;;14.23;7.70;;;21.00;87.20;;;;;;5091724;28;20397;-77
2021/07/04 11:41:09;;;;;;;13.67;7.43;;;20.90;87.80;;;;;;5093348;28;20385;-80
2021/07/04 11:43:39;;;;;;;14.60;7.68;;;20.70;88.50;;;;;;5092942;28;20374;-78
2021/07/04 11:46:08;;;;;;;13.35;7.38;;;20.90;87.70;;;;;;5094851;28;20413;-78
2021/07/04 11:48:58;;;;;;;10.63;7.13;;;20.80;87.70;;;;;;5076805;28;20870;-77
2021/07/04 11:51:31;;;;;;;14.98;7.28;;;20.80;87.90;;;;;;5093186;28;20484;-79
2021/07/04 11:54:00;;;;;;;9.57;6.90;;;20.80;88.20;;;;;;5093114;28;20378;-78
2021/07/04 11:56:26;;;;;;;11.27;6.85;;;20.80;88.80;;;;;;5092937;28;20466;-80
2021/07/04 11:58:51;;;;;;;10.95;7.03;;;20.90;88.60;;;;;;5092095;28;20450;-76
2021/07/04 12:01:22;;;;;;;10.27;6.43;;;20.90;89.00;;;;;;5108603;28;20386;-76
2021/07/04 12:03:55;;;;;;;8.52;6.45;;;20.80;88.80;;;;;;5092611;28;20382;-77
2021/07/04 12:06:22;;;;;;;9.95;6.72;;;20.80;88.70;;;;;;5092736;28;20385;-78
2021/07/04 12:08:56;;;;;;;6.93;5.68;;;20.80;89.50;;;;;;5091887;28;20465;-79
2021/07/04 12:11:50;;;;;;;10.07;6.75;;;20.90;89.00;;;;;;5092769;28;20481;-77
2021/07/04 12:14:34;;;;;;;10.93;7.07;;;20.90;89.50;;;;;;5090841;28;20553;-79
2021/07/04 12:17:25;;;;;;;9.45;6.75;;;20.90;89.40;;;;;;5090257;28;20419;-78
2021/07/04 12:20:03;;;;;;;11.23;6.82;;;20.80;90.00;;;;;;5089552;28;20384;-78
2021/07/04 12:22:31;;;;;;;10.60;6.60;;;20.80;89.70;;;;;;5092088;28;20477;-78
2021/07/04 12:24:59;;;;;;;14.50;7.55;;;20.80;89.80;;;;;;5091506;28;20717;-77
2021/07/04 12:27:39;;;;;;;16.60;8.65;;;20.70;90.40;;;;;;5092469;28;20370;-77
2021/07/04 12:30:08;;;;;;;17.00;8.40;;;20.60;90.00;;;;;;5088083;28;20386;-78
2021/07/04 12:32:57;;;;;;;13.85;8.05;;;20.50;90.10;;;;;;5090686;28;20391;-77
2021/07/04 12:35:56;;;;;;;18.83;7.43;;;20.70;89.90;;;;;;5106896;28;20887;-76
2021/07/04 12:38:31;;;;;;;9.90;6.87;;;20.70;90.20;;;;;;5107970;28;20466;-78
2021/07/04 12:40:58;;;;;;;12.43;7.53;;;20.70;89.80;;;;;;5091982;28;20397;-78
2021/07/04 12:43:32;;;;;;;9.23;6.85;;;20.70;89.90;;;;;;5091517;28;20680;-78
2021/07/04 12:46:00;;;;;;;9.32;6.75;;;20.70;90.20;;;;;;5091876;28;20378;-80